Stations météo

Publicité
Vannes/Sene, France (7210): Température de l'air & dewpoint: 12.11.2019 12:00:00 - 18.11.2019 12:00:00 (CET)Vannes/Sene, France (7210): Vitesse du vent & gusts: 12.11.2019 12:00:00 - 18.11.2019 12:00:00 (CET)Vannes/Sene, France (7210): Direction du vent: 12.11.2019 12:00:00 - 18.11.2019 12:00:00 (CET)Vannes/Sene, France (7210): Ensoleillement: 12.11.2019 12:00:00 - 18.11.2019 12:00:00 (CET)Vannes/Sene, France (7210): Quantités de précipitations: 12.11.2019 12:00:00 - 18.11.2019 12:00:00 (CET)
Date & Time tt [°C] td [°C] ff [km/h] ff [knt] fx [km/h] fx [knt] dd sd [min] rr [mm]
18.11.2019 12:00:00 - - - - - - - - -
18.11.2019 11:00:00 8,6 6,2 8 4 16 9 N 48 0,0
18.11.2019 10:00:00 6,1 5,5 8 4 15 8 NW 60 0,0
18.11.2019 09:00:00 3,7 3,4 4 2 8 4 WNW 12 0,0
18.11.2019 08:00:00 4,3 3,9 4 2 13 7 N 0 0,0
18.11.2019 07:00:00 4,5 4,4 8 4 11 6 NNW 0 -
18.11.2019 06:00:00 4,0 3,9 5 3 9 5 NNW 0 0,0
18.11.2019 05:00:00 3,6 3,2 4 2 11 6 NW 0 0,0
18.11.2019 04:00:00 4,6 4,5 5 3 13 7 NW 0 0,0
18.11.2019 03:00:00 4,1 4,0 4 2 5 3 E 0 0,0
18.11.2019 02:00:00 3,7 3,6 2 1 8 4 NW 0 0,0
18.11.2019 01:00:00 2,5 2,4 4 2 8 4 NNW 0 -
18.11.2019 00:00:00 1,8 1,5 4 2 4 2 N 0 0,0
17.11.2019 23:00:00 2,5 2,4 0 0 8 4 N 0 0,0
17.11.2019 22:00:00 2,0 1,7 0 0 5 3 N 0 0,0
17.11.2019 21:00:00 2,2 1,8 4 2 8 4 N 0 0,0
17.11.2019 20:00:00 2,9 2,3 4 2 8 4 NNE 0 0,0
17.11.2019 19:00:00 3,7 2,8 4 2 5 3 NNE 0 -
17.11.2019 18:00:00 4,8 3,3 2 1 5 3 NNW 0 0,0
17.11.2019 17:00:00 8,1 3,9 4 2 15 8 NE 18 0,0
17.11.2019 16:00:00 9,8 4,6 8 4 18 10 NNE 60 0,0
17.11.2019 15:00:00 9,8 4,2 4 2 11 6 ENE 30 0,0
17.11.2019 14:00:00 9,0 4,8 4 2 11 6 ENE 6 0,0
17.11.2019 13:00:00 7,5 5,8 5 3 9 5 NNE 0 -
17.11.2019 12:00:00 6,4 5,7 5 3 9 5 ENE 0 0,0
17.11.2019 11:00:00 5,5 5,2 2 1 5 3 N 0 0,0
17.11.2019 10:00:00 3,6 3,6 4 2 9 5 NNE 0 0,0
17.11.2019 09:00:00 3,0 3,0 5 3 9 5 ENE 0 0,0
17.11.2019 08:00:00 1,8 1,7 4 2 8 4 NNE 0 0,0
17.11.2019 07:00:00 2,0 1,9 2 1 8 4 E 0 -
17.11.2019 06:00:00 2,8 2,7 4 2 8 4 NNW 0 0,0
17.11.2019 05:00:00 2,7 2,6 2 1 8 4 N 0 0,0
17.11.2019 04:00:00 2,1 2,0 2 1 8 4 NE 0 0,0
17.11.2019 03:00:00 1,5 1,4 4 2 5 3 NE 0 0,0
17.11.2019 02:00:00 1,7 1,4 0 0 8 4 N 0 0,0
17.11.2019 01:00:00 2,6 2,5 4 2 5 3 NE 0 -
17.11.2019 00:00:00 2,9 2,5 4 2 8 4 N 0 0,0
16.11.2019 23:00:00 4,0 3,4 4 2 9 5 WNW 0 0,0
16.11.2019 22:00:00 4,9 4,2 8 4 15 8 WNW 0 0,0
16.11.2019 21:00:00 5,1 3,9 4 2 8 4 NE 0 0,0
16.11.2019 20:00:00 6,8 4,6 5 3 11 6 NNW 0 0,0
16.11.2019 19:00:00 6,9 4,7 5 3 11 6 NW 0 -
16.11.2019 18:00:00 6,1 3,9 5 3 16 9 NW 0 0,0
16.11.2019 17:00:00 7,9 4,5 8 4 24 13 NNW 18 0,0
16.11.2019 16:00:00 8,3 4,5 9 5 29 16 NW 24 0,0
16.11.2019 15:00:00 8,7 4,5 15 8 26 14 NNW 0 0,0
16.11.2019 14:00:00 8,3 5,8 11 6 31 17 NW 0 0,0
16.11.2019 13:00:00 9,0 5,0 11 6 28 15 NW 12 -
16.11.2019 12:00:00 8,9 4,7 13 7 22 12 NNW 12 0,0
16.11.2019 11:00:00 8,2 5,5 9 5 18 10 NW 12 0,0
16.11.2019 10:00:00 6,6 4,8 9 5 22 12 NW 0 0,0
16.11.2019 09:00:00 6,5 4,7 11 6 24 13 WNW 0 0,0
16.11.2019 08:00:00 6,6 4,6 11 6 28 15 WNW 0 0,0
16.11.2019 07:00:00 6,5 4,5 13 7 24 13 WNW 0 -
16.11.2019 06:00:00 6,2 4,0 11 6 26 14 W 0 0,0
16.11.2019 05:00:00 6,6 4,4 11 6 28 15 W 0 0,0
16.11.2019 04:00:00 7,3 4,4 15 8 31 17 WNW 0 0,0
16.11.2019 03:00:00 6,8 4,9 13 7 26 14 W 0 0,0
16.11.2019 02:00:00 6,5 4,5 9 5 22 12 WNW 0 0,0
16.11.2019 01:00:00 6,8 4,9 13 7 28 15 NW 0 -
16.11.2019 00:00:00 6,7 5,3 9 5 22 12 W 0 0,0
15.11.2019 23:00:00 6,5 5,1 9 5 21 11 WNW 0 0,0
15.11.2019 22:00:00 6,1 4,7 8 4 21 11 WNW 0 0,0
15.11.2019 21:00:00 6,5 4,5 8 4 18 10 WNW 0 0,0
15.11.2019 20:00:00 6,5 4,3 9 5 22 12 W 0 0,0
15.11.2019 19:00:00 6,6 4,6 9 5 22 12 WNW 0 -
15.11.2019 18:00:00 6,6 4,4 8 4 29 16 WNW 6 0,0
15.11.2019 17:00:00 8,3 3,9 13 7 31 17 NW 42 0,0
15.11.2019 16:00:00 9,5 4,1 16 9 35 19 NNW 36 0,0
15.11.2019 15:00:00 9,3 4,1 15 8 35 19 NNW 30 0,0
15.11.2019 14:00:00 9,0 4,2 21 11 34 18 NNW 42 0,0
15.11.2019 13:00:00 8,4 4,2 18 10 35 19 NNW 36 -
15.11.2019 12:00:00 8,1 4,1 11 6 18 10 NNW 60 0,0
15.11.2019 11:00:00 6,2 3,7 9 5 15 8 NNW 60 0,0
15.11.2019 10:00:00 3,5 2,6 8 4 13 7 NNW 36 0,0
15.11.2019 09:00:00 1,3 1,0 4 2 9 5 NNW 12 0,0
15.11.2019 08:00:00 1,3 1,0 5 3 13 7 NNW 0 0,0
15.11.2019 07:00:00 1,6 1,2 8 4 16 9 NNW 0 -
15.11.2019 06:00:00 2,0 1,6 11 6 16 9 NNW 0 0,0
15.11.2019 05:00:00 1,7 1,4 9 5 15 8 N 0 0,0
15.11.2019 04:00:00 1,7 1,1 4 2 13 7 NNW 0 0,0
15.11.2019 03:00:00 2,3 1,9 8 4 11 6 N 0 0,0
15.11.2019 02:00:00 2,5 1,9 5 3 11 6 N 0 0,0
15.11.2019 01:00:00 3,2 2,5 8 4 11 6 NNE 0 -
15.11.2019 00:00:00 4,4 3,4 5 3 13 7 NNE 0 0,0
14.11.2019 23:00:00 4,7 3,7 4 2 11 6 N 0 0,0
14.11.2019 22:00:00 5,3 3,8 8 4 16 9 E 0 0,0
14.11.2019 21:00:00 5,3 4,1 8 4 13 7 E 0 0,0
14.11.2019 20:00:00 4,4 3,8 4 2 9 5 ESE 0 0,0
14.11.2019 19:00:00 4,6 3,9 8 4 13 7 E 0 -
14.11.2019 18:00:00 5,7 4,3 4 2 9 5 S 0 0,0
14.11.2019 17:00:00 7,7 4,1 4 2 18 10 SSW 12 0,2
14.11.2019 16:00:00 8,4 3,6 9 5 22 12 SSW 30 0,0
14.11.2019 15:00:00 10,6 3,6 8 4 15 8 SSW 60 0,0
14.11.2019 14:00:00 10,3 5,1 9 5 22 12 SSW 36 0,0
14.11.2019 13:00:00 11,1 3,6 4 2 13 7 SSW 60 -
14.11.2019 12:00:00 9,8 5,6 9 5 15 8 SE 60 0,0
14.11.2019 11:00:00 6,7 6,0 4 2 8 4 ENE 48 0,0
14.11.2019 10:00:00 2,3 2,2 4 2 8 4 E 0 0,0
14.11.2019 09:00:00 1,7 1,6 5 3 9 5 NE 0 0,0
14.11.2019 08:00:00 1,5 1,4 5 3 9 5 NNE 0 0,0
14.11.2019 07:00:00 0,7 0,6 4 2 8 4 NE 0 -
14.11.2019 06:00:00 1,1 0,8 0 0 5 3 N 0 0,0
14.11.2019 05:00:00 1,6 1,2 4 2 8 4 NE 0 0,0
14.11.2019 04:00:00 2,5 2,1 4 2 13 7 WSW 0 0,0
14.11.2019 03:00:00 2,8 2,4 5 3 13 7 WNW 0 0,0
14.11.2019 02:00:00 2,2 1,5 0 0 11 6 N 0 0,0
14.11.2019 01:00:00 3,6 2,6 5 3 18 10 W 0 -
14.11.2019 00:00:00 4,4 3,2 5 3 18 10 W 0 0,0
13.11.2019 23:00:00 4,1 3,1 4 2 22 12 W 0 0,0
13.11.2019 22:00:00 6,2 4,5 11 6 37 20 W 0 0,6
13.11.2019 21:00:00 5,0 4,1 8 4 18 10 SW 0 0,0
13.11.2019 20:00:00 4,4 3,4 8 4 39 21 NW 0 1,0
13.11.2019 19:00:00 5,6 4,1 29 16 91 49 NW 0 -
13.11.2019 18:00:00 10,4 7,3 24 13 54 29 SW 0 0,2
13.11.2019 17:00:00 10,5 6,3 16 9 34 18 SSW 0 0,0
13.11.2019 16:00:00 9,9 6,1 18 10 35 19 SSW 0 0,0
13.11.2019 15:00:00 8,9 6,2 18 10 37 20 SW 6 0,8
13.11.2019 14:00:00 10,8 5,1 13 7 26 14 SW 0 0,0
13.11.2019 13:00:00 10,8 5,5 5 3 16 9 SW 24 -
13.11.2019 12:00:00 11,3 5,4 8 4 16 9 WSW 60 0,0
13.11.2019 11:00:00 8,5 5,4 2 1 8 4 NW 60 0,0
13.11.2019 10:00:00 5,9 5,8 2 1 8 4 ESE 48 0,0
13.11.2019 09:00:00 2,1 2,1 4 2 8 4 SW 18 0,0
13.11.2019 08:00:00 1,3 1,2 0 0 8 4 N 0 0,0
13.11.2019 07:00:00 1,1 1,0 4 2 8 4 WNW 0 -
13.11.2019 06:00:00 0,5 0,4 5 3 11 6 NNW 0 0,0
13.11.2019 05:00:00 0,4 0,3 0 0 8 4 N 0 0,0
13.11.2019 04:00:00 0,7 0,6 4 2 5 3 N 0 0,0
13.11.2019 03:00:00 0,9 0,8 0 0 8 4 N 0 0,0
13.11.2019 02:00:00 0,6 0,2 5 3 8 4 NNW 0 0,0
13.11.2019 01:00:00 1,6 1,3 2 1 5 3 N 0 -
13.11.2019 00:00:00 1,8 1,4 2 1 5 3 NE 0 0,0
12.11.2019 23:00:00 2,3 1,9 4 2 9 5 E 0 0,0
12.11.2019 22:00:00 2,4 1,7 2 1 5 3 NNW 0 0,0
12.11.2019 21:00:00 3,3 2,0 4 2 9 5 WNW 0 0,0
12.11.2019 20:00:00 5,4 2,9 5 3 16 9 NW 0 0,0
12.11.2019 19:00:00 6,7 3,1 8 4 15 8 W 0 -
12.11.2019 18:00:00 7,3 3,0 8 4 18 10 W 0 0,0
12.11.2019 17:00:00 9,4 3,1 11 6 31 17 WNW 12 0,0
12.11.2019 16:00:00 9,9 3,8 11 6 34 18 NNW 6 0,0
12.11.2019 15:00:00 11,2 3,9 15 8 34 18 WNW 36 0,0
12.11.2019 14:00:00 11,6 4,3 15 8 31 17 WNW 42 0,0
12.11.2019 13:00:00 10,7 4,2 16 9 34 18 WNW 12 -
12.11.2019 12:00:00 11,1 4,1 13 7 31 17 WNW 54 0,0

tt = Température de l'air
td = dewpoint
ff = Vitesse du vent
fx = gusts
dd = Direction du vent
sd = Ensoleillement
rr = Quantités de précipitations

stations d'obs. à proximité